Willow Island, West Virginia
Current Conditions -  °F | °C
As of 12:53 PM on Saturday 20 Dec 2014 (Local Time) from KPKB Reporting Station
Overcast Overcast  
Wind Chill: 33°   Ceiling: 2200
Heat Index: 33°   Visibility: 10mi
Dew Point: 22°   Wind: 3mph
Humidity: 64%   Direction: NA
Pressure: 30.27"   Gusts: NA
Location:  39.3518°N, 81.2939°W
Report Text: KPKB 201753Z VRB03KT 10SM OVC022 01/M06 A3027 RMK AO2 SLP259 T00061056 10006 21011 58012
Loading
Personal Weather Stations






























Interactive Weather Map New forecast layout! Learn more

10-Day Weather Forecast

Advertisements
Track Severe Weather on mobile